createdAt,value
2019-02-09T00:00:32.628Z,26.67
2019-02-09T00:03:06.827Z,26.63
2019-02-09T00:05:38.489Z,25.77
2019-02-09T00:08:10.602Z,24.80
2019-02-09T00:10:44.221Z,25.47
2019-02-09T00:13:15.674Z,24.60
2019-02-09T00:15:47.328Z,23.83
2019-02-09T00:18:19.112Z,23.77
2019-02-09T00:20:50.974Z,24.03
2019-02-09T00:23:25.883Z,23.93
2019-02-09T00:25:57.176Z,22.60
2019-02-09T00:28:28.798Z,23.70
2019-02-09T00:31:00.290Z,22.23
2019-02-09T00:33:33.758Z,21.50
2019-02-09T00:36:06.451Z,21.10
2019-02-09T00:38:38.184Z,20.17
2019-02-09T00:41:09.705Z,19.67
2019-02-09T00:43:42.039Z,22.10
2019-02-09T00:46:13.620Z,21.50
2019-02-09T00:48:46.862Z,22.90
2019-02-09T00:51:18.535Z,22.27
2019-02-09T00:53:52.791Z,22.57
2019-02-09T00:56:24.664Z,21.97
2019-02-09T00:58:56.089Z,25.33
2019-02-09T01:01:27.739Z,25.43
2019-02-09T01:04:00.495Z,22.20
2019-02-09T01:06:31.882Z,17.60
2019-02-09T01:09:06.334Z,18.57
2019-02-09T01:11:37.938Z,17.37
2019-02-09T01:14:11.704Z,17.63
2019-02-09T01:16:46.612Z,19.70
2019-02-09T01:19:18.284Z,18.87
2019-02-09T01:21:50.108Z,17.37
2019-02-09T01:24:21.732Z,18.53
2019-02-09T01:26:53.277Z,19.70
2019-02-09T01:29:24.992Z,21.03
2019-02-09T01:31:56.833Z,20.07
2019-02-09T01:34:28.869Z,20.07
2019-02-09T01:37:00.729Z,19.20
2019-02-09T01:39:32.793Z,20.33
2019-02-09T01:42:11.879Z,19.07
2019-02-09T01:44:43.529Z,19.40
2019-02-09T01:47:15.219Z,18.20
2019-02-09T01:49:46.671Z,17.57
2019-02-09T01:52:18.300Z,18.97
2019-02-09T01:54:50.582Z,22.80
2019-02-09T01:57:22.705Z,20.70
2019-02-09T01:59:54.522Z,19.77
2019-02-09T02:02:26.286Z,14.57
2019-02-09T02:04:59.202Z,14.10
2019-02-09T02:07:31.004Z,14.27
2019-02-09T02:10:04.971Z,14.57
2019-02-09T02:12:36.813Z,14.20
2019-02-09T02:15:11.909Z,14.83
2019-02-09T02:17:43.599Z,13.50
2019-02-09T02:20:18.110Z,14.10
2019-02-09T02:22:50.973Z,14.57
2019-02-09T02:25:23.738Z,15.30
2019-02-09T02:27:57.871Z,13.27
2019-02-09T02:30:31.800Z,15.87
2019-02-09T02:33:03.975Z,15.23
2019-02-09T02:35:37.635Z,14.97
2019-02-09T02:38:10.303Z,16.13
2019-02-09T02:40:41.968Z,15.50
2019-02-09T02:43:13.914Z,16.00
2019-02-09T02:45:47.456Z,16.10
2019-02-09T02:48:20.922Z,15.03
2019-02-09T02:50:55.095Z,17.60
2019-02-09T02:53:26.886Z,19.73
2019-02-09T02:55:58.681Z,20.97
2019-02-09T02:58:30.169Z,21.87
2019-02-09T03:01:02.116Z,21.83
2019-02-09T03:03:35.919Z,20.47
2019-02-09T03:06:07.563Z,21.13
2019-02-09T03:08:39.843Z,20.33
2019-02-09T03:11:11.712Z,21.13
2019-02-09T03:13:43.409Z,21.07
2019-02-09T03:16:14.890Z,21.23
2019-02-09T03:18:46.144Z,20.73
2019-02-09T03:21:17.694Z,20.73
2019-02-09T03:23:49.112Z,20.43
2019-02-09T03:26:21.520Z,21.77
2019-02-09T03:28:53.061Z,22.00
2019-02-09T03:31:24.953Z,18.90
2019-02-09T03:34:03.634Z,18.00
2019-02-09T03:36:35.197Z,19.60
2019-02-09T03:39:09.553Z,19.27
2019-02-09T03:41:41.052Z,19.00
2019-02-09T03:44:12.836Z,18.53
2019-02-09T03:46:44.958Z,17.43
2019-02-09T03:49:16.250Z,17.87
2019-02-09T03:51:47.967Z,16.73
2019-02-09T03:54:19.619Z,16.57
2019-02-09T03:56:51.186Z,16.70
2019-02-09T03:59:23.540Z,17.07
2019-02-09T04:01:57.090Z,15.30
2019-02-09T04:04:28.516Z,16.23
2019-02-09T04:07:04.017Z,15.70
2019-02-09T04:09:35.880Z,14.90
2019-02-09T04:12:07.636Z,15.97
2019-02-09T04:14:39.327Z,15.40
2019-02-09T04:17:11.158Z,15.40
2019-02-09T04:19:44.404Z,14.90
2019-02-09T04:22:16.353Z,15.10
2019-02-09T04:24:48.379Z,15.03
2019-02-09T04:27:19.868Z,14.73
2019-02-09T04:29:51.425Z,14.30
2019-02-09T04:32:23.739Z,15.30
2019-02-09T04:34:55.338Z,14.47
2019-02-09T04:37:26.765Z,14.50
2019-02-09T04:39:58.310Z,14.37
2019-02-09T04:42:30.422Z,15.63
2019-02-09T04:45:01.943Z,14.73
2019-02-09T04:47:33.324Z,13.67
2019-02-09T04:50:05.582Z,14.70
2019-02-09T04:52:38.772Z,13.93
2019-02-09T04:55:13.384Z,14.63
2019-02-09T04:57:44.811Z,14.77
2019-02-09T05:00:20.769Z,14.47
2019-02-09T05:02:53.122Z,15.07
2019-02-09T05:05:25.293Z,14.70
2019-02-09T05:07:58.446Z,15.63
2019-02-09T05:10:30.168Z,18.03
2019-02-09T05:13:04.431Z,16.47
2019-02-09T05:15:38.163Z,16.70
2019-02-09T05:18:10.539Z,17.40
2019-02-09T05:20:42.064Z,17.63
2019-02-09T05:23:13.498Z,18.20
2019-02-09T05:25:44.910Z,15.83
2019-02-09T05:28:16.257Z,17.07
2019-02-09T05:30:47.813Z,16.20
2019-02-09T05:33:19.631Z,16.63
2019-02-09T05:35:51.721Z,16.37
2019-02-09T05:38:26.234Z,15.17
2019-02-09T05:40:58.136Z,15.23
2019-02-09T05:43:30.387Z,13.70
2019-02-09T05:46:03.723Z,14.10
2019-02-09T05:48:35.519Z,14.53
2019-02-09T05:51:08.769Z,14.20
2019-02-09T05:53:40.390Z,14.30
2019-02-09T05:56:13.071Z,13.53
2019-02-09T05:58:44.606Z,13.57
2019-02-09T06:01:18.053Z,13.43
2019-02-09T06:03:49.560Z,14.57
2019-02-09T06:06:21.354Z,14.50
2019-02-09T06:08:53.616Z,14.03
2019-02-09T06:11:25.475Z,14.53
2019-02-09T06:13:57.369Z,14.23
2019-02-09T06:16:30.773Z,14.43
2019-02-09T06:19:02.527Z,14.83
2019-02-09T06:21:33.911Z,15.10
2019-02-09T06:24:05.590Z,15.30
2019-02-09T06:26:37.251Z,15.20
2019-02-09T06:29:10.128Z,15.40
2019-02-09T06:31:41.667Z,15.87
2019-02-09T06:34:13.514Z,15.03
2019-02-09T06:36:45.162Z,14.60
2019-02-09T06:39:16.446Z,16.27
2019-02-09T06:41:47.971Z,16.27
2019-02-09T06:44:19.468Z,15.40
2019-02-09T06:46:52.945Z,16.03
2019-02-09T06:49:24.735Z,16.20
2019-02-09T06:51:56.527Z,16.90
2019-02-09T06:54:28.027Z,16.67
2019-02-09T06:57:02.019Z,16.03
2019-02-09T06:59:33.524Z,16.13
2019-02-09T07:02:05.511Z,17.43
2019-02-09T07:04:37.262Z,17.40
2019-02-09T07:07:10.710Z,16.17
2019-02-09T07:09:44.070Z,17.47
2019-02-09T07:12:22.936Z,16.60
2019-02-09T07:14:54.796Z,17.27
2019-02-09T07:17:26.325Z,18.33
2019-02-09T07:19:59.702Z,18.33
2019-02-09T07:22:32.798Z,17.43
2019-02-09T07:25:04.687Z,18.77
2019-02-09T07:27:37.875Z,18.23
2019-02-09T07:30:14.731Z,17.17
2019-02-09T07:32:50.619Z,18.10
2019-02-09T07:35:22.779Z,18.70
2019-02-09T07:37:54.822Z,17.80
2019-02-09T07:40:26.646Z,17.90
2019-02-09T07:42:58.907Z,18.20
2019-02-09T07:45:31.882Z,18.27
2019-02-09T07:48:03.731Z,19.03
2019-02-09T07:50:36.878Z,18.97
2019-02-09T07:53:09.056Z,18.30
2019-02-09T07:55:40.732Z,18.07
2019-02-09T07:58:12.692Z,18.67
2019-02-09T08:00:44.254Z,18.60
2019-02-09T08:03:16.002Z,18.63
2019-02-09T08:05:47.861Z,18.87
2019-02-09T08:08:19.689Z,18.47
2019-02-09T08:10:53.939Z,18.23
2019-02-09T08:13:25.637Z,19.10
2019-02-09T08:15:57.613Z,18.83
2019-02-09T08:18:29.638Z,19.17
2019-02-09T08:21:01.274Z,18.43
2019-02-09T08:23:39.178Z,19.17
2019-02-09T08:26:11.276Z,19.43
2019-02-09T08:28:42.986Z,20.20
2019-02-09T08:31:16.346Z,19.07
2019-02-09T08:33:48.514Z,18.60
2019-02-09T08:36:19.859Z,18.23
2019-02-09T08:38:51.864Z,17.50
2019-02-09T08:41:23.827Z,18.93
2019-02-09T08:43:55.933Z,19.33
2019-02-09T08:46:29.085Z,19.43
2019-02-09T08:49:03.885Z,18.67
2019-02-09T08:51:35.786Z,18.33
2019-02-09T08:54:07.531Z,19.47
2019-02-09T08:56:39.773Z,19.93
2019-02-09T08:59:12.313Z,18.40
2019-02-09T09:01:44.305Z,18.90
2019-02-09T09:04:16.040Z,19.37
2019-02-09T09:06:47.998Z,20.67
2019-02-09T09:09:19.592Z,19.23
2019-02-09T09:11:51.198Z,19.13
2019-02-09T09:14:24.834Z,20.03
2019-02-09T09:16:57.669Z,19.57
2019-02-09T09:19:30.348Z,19.80
2019-02-09T09:22:03.896Z,20.50
2019-02-09T09:24:35.901Z,18.47
2019-02-09T09:27:07.277Z,20.23
2019-02-09T09:29:41.852Z,20.30
2019-02-09T09:32:14.154Z,18.67
2019-02-09T09:34:46.451Z,18.03
2019-02-09T09:37:18.003Z,18.17
2019-02-09T09:39:51.250Z,17.80
2019-02-09T09:42:26.912Z,17.70
2019-02-09T09:44:58.964Z,18.23
2019-02-09T09:47:33.804Z,16.67
2019-02-09T09:50:06.567Z,16.37
2019-02-09T09:52:38.724Z,17.00
2019-02-09T09:55:12.645Z,17.30
2019-02-09T09:57:44.319Z,17.20
2019-02-09T10:00:18.999Z,16.63
2019-02-09T10:02:52.812Z,16.70
2019-02-09T10:05:26.406Z,18.47
2019-02-09T10:07:58.288Z,16.83
2019-02-09T10:10:30.585Z,17.87
2019-02-09T10:13:02.462Z,17.37
2019-02-09T10:15:36.380Z,18.07
2019-02-09T10:18:10.382Z,17.47
2019-02-09T10:20:44.128Z,19.00
2019-02-09T10:23:18.624Z,19.53
2019-02-09T10:25:51.042Z,17.40
2019-02-09T10:28:24.594Z,18.90
2019-02-09T10:30:56.072Z,17.77
2019-02-09T10:33:34.460Z,18.20
2019-02-09T10:36:08.268Z,18.27
2019-02-09T10:38:40.312Z,18.33
2019-02-09T10:41:13.473Z,18.20
2019-02-09T10:43:47.133Z,17.37
2019-02-09T10:46:18.833Z,16.50
2019-02-09T10:48:53.297Z,18.10
2019-02-09T10:51:25.207Z,16.60
2019-02-09T10:53:58.426Z,16.70
2019-02-09T10:56:30.924Z,17.65
2019-02-09T10:59:03.055Z,16.83
2019-02-09T11:01:35.208Z,16.60
2019-02-09T11:04:11.745Z,16.30
2019-02-09T11:06:43.334Z,16.20
2019-02-09T11:09:21.894Z,16.27
2019-02-09T11:11:55.174Z,15.37
2019-02-09T11:14:28.269Z,15.33
2019-02-09T11:17:01.385Z,15.60
2019-02-09T11:19:34.732Z,15.90
2019-02-09T11:22:07.140Z,14.63
2019-02-09T11:24:39.023Z,15.10
2019-02-09T11:27:10.993Z,14.67
2019-02-09T11:29:43.003Z,15.00
2019-02-09T11:32:16.067Z,15.17
2019-02-09T11:34:47.664Z,14.50
2019-02-09T11:37:19.360Z,14.27
2019-02-09T11:39:53.002Z,14.27
2019-02-09T11:42:26.380Z,14.73
2019-02-09T11:44:58.218Z,15.63
2019-02-09T11:47:32.299Z,15.53
2019-02-09T11:50:06.367Z,15.07
2019-02-09T11:52:43.446Z,15.23
2019-02-09T11:55:15.934Z,15.13
2019-02-09T11:57:47.592Z,16.00
2019-02-09T12:00:25.009Z,16.83
2019-02-09T12:03:02.856Z,15.80
2019-02-09T12:05:30.502Z,14.77
2019-02-09T12:08:02.339Z,15.27
2019-02-09T12:10:34.190Z,15.27
2019-02-09T12:13:07.343Z,14.93
2019-02-09T12:15:39.624Z,13.97
2019-02-09T12:18:11.497Z,14.13
2019-02-09T12:20:44.349Z,12.90
2019-02-09T12:23:17.231Z,12.37
2019-02-09T12:25:49.140Z,12.43
2019-02-09T12:28:22.941Z,13.50
2019-02-09T12:30:54.731Z,12.87
2019-02-09T12:33:28.261Z,12.37
2019-02-09T12:35:59.951Z,12.07
2019-02-09T12:38:32.735Z,11.70
2019-02-09T12:41:04.615Z,12.83
2019-02-09T12:43:36.418Z,11.70
2019-02-09T12:46:07.745Z,11.77
2019-02-09T12:48:41.197Z,12.27
2019-02-09T12:51:13.949Z,12.30
2019-02-09T12:53:46.322Z,12.40
2019-02-09T12:56:17.973Z,11.73
2019-02-09T12:58:49.471Z,12.20
2019-02-09T13:01:22.128Z,11.97
2019-02-09T13:03:55.504Z,12.67
2019-02-09T13:06:27.416Z,12.40
2019-02-09T13:09:02.646Z,12.00
2019-02-09T13:11:35.174Z,12.07
2019-02-09T13:14:07.609Z,12.50
2019-02-09T13:16:39.274Z,11.57
2019-02-09T13:19:10.767Z,11.53
2019-02-09T13:21:42.490Z,12.17
2019-02-09T13:24:14.115Z,12.40
2019-02-09T13:26:45.576Z,12.30
2019-02-09T13:29:17.548Z,12.03
2019-02-09T13:31:50.706Z,12.47
2019-02-09T13:34:26.437Z,12.17
2019-02-09T13:36:58.421Z,12.53
2019-02-09T13:39:31.094Z,12.00
2019-02-09T13:42:04.669Z,11.77
2019-02-09T13:44:38.096Z,12.20
2019-02-09T13:47:10.525Z,11.37
2019-02-09T13:49:42.453Z,11.70
2019-02-09T13:52:14.259Z,10.97
2019-02-09T13:54:45.754Z,11.23
2019-02-09T13:57:17.153Z,11.53
2019-02-09T13:59:49.343Z,12.40
2019-02-09T14:02:22.865Z,13.70
2019-02-09T14:04:54.424Z,13.43
2019-02-09T14:07:27.623Z,13.23
2019-02-09T14:10:00.762Z,12.83
2019-02-09T14:12:32.756Z,12.43
2019-02-09T14:15:05.020Z,11.97
2019-02-09T14:17:37.088Z,11.60
2019-02-09T14:20:10.403Z,10.60
2019-02-09T14:22:42.996Z,10.93
2019-02-09T14:25:15.252Z,11.73
2019-02-09T14:27:47.988Z,9.67
2019-02-09T14:30:27.190Z,11.10
2019-02-09T14:33:01.530Z,9.60
2019-02-09T14:35:34.609Z,10.67
2019-02-09T14:38:06.761Z,10.10
2019-02-09T14:40:39.036Z,10.57
2019-02-09T14:43:13.632Z,10.47
2019-02-09T14:45:45.842Z,10.07
2019-02-09T14:48:17.461Z,9.83
2019-02-09T14:50:49.578Z,11.03
2019-02-09T14:53:21.753Z,10.47
2019-02-09T14:55:53.124Z,11.13
2019-02-09T14:58:26.540Z,11.00
2019-02-09T15:00:59.717Z,11.03
2019-02-09T15:03:32.861Z,10.90
2019-02-09T15:06:04.919Z,11.67
2019-02-09T15:08:37.666Z,11.00
2019-02-09T15:11:09.436Z,12.10
2019-02-09T15:13:44.788Z,11.53
2019-02-09T15:16:38.289Z,12.40
2019-02-09T15:19:12.295Z,12.13
2019-02-09T15:21:44.884Z,12.30
2019-02-09T15:24:17.801Z,12.37
2019-02-09T15:26:50.548Z,12.23
2019-02-09T15:29:24.037Z,11.67
2019-02-09T15:31:56.299Z,11.97
2019-02-09T15:34:28.688Z,11.50
2019-02-09T15:37:01.809Z,11.43
2019-02-09T15:39:34.555Z,11.30
2019-02-09T15:42:06.846Z,11.20
2019-02-09T15:44:40.428Z,12.17
2019-02-09T15:47:12.320Z,11.97
2019-02-09T15:49:43.824Z,12.57
2019-02-09T15:52:15.290Z,13.03
2019-02-09T15:54:47.551Z,11.40
2019-02-09T15:57:19.826Z,11.77
2019-02-09T15:59:53.086Z,11.97
2019-02-09T16:02:26.452Z,11.20
2019-02-09T16:05:00.427Z,11.67
2019-02-09T16:07:32.246Z,11.50
2019-02-09T16:10:05.102Z,10.40
2019-02-09T16:12:36.829Z,10.57
2019-02-09T16:15:11.164Z,10.53
2019-02-09T16:17:42.718Z,10.00
2019-02-09T16:20:16.915Z,9.17
2019-02-09T16:22:48.727Z,10.90
2019-02-09T16:25:20.610Z,10.80
2019-02-09T16:27:52.226Z,10.80
2019-02-09T16:30:25.527Z,10.47
2019-02-09T16:32:58.877Z,11.43
2019-02-09T16:35:31.052Z,12.10
2019-02-09T16:38:04.799Z,13.00
2019-02-09T16:40:36.373Z,12.93
2019-02-09T16:43:09.098Z,12.83
2019-02-09T16:45:42.634Z,11.07
2019-02-09T16:48:14.273Z,12.43
2019-02-09T16:50:46.070Z,12.77
2019-02-09T16:53:18.219Z,11.43
2019-02-09T16:55:50.791Z,12.40
2019-02-09T16:58:22.791Z,12.13
2019-02-09T17:00:56.310Z,13.00
2019-02-09T17:03:28.189Z,11.87
2019-02-09T17:06:00.513Z,11.93
2019-02-09T17:08:32.606Z,11.87
2019-02-09T17:11:04.495Z,12.37
2019-02-09T17:13:36.233Z,10.90
2019-02-09T17:16:07.884Z,11.23
2019-02-09T17:18:39.485Z,10.57
2019-02-09T17:21:11.604Z,9.43
2019-02-09T17:23:43.312Z,9.27
2019-02-09T17:26:16.384Z,9.00
2019-02-09T17:28:49.625Z,9.23
2019-02-09T17:31:24.603Z,9.30
2019-02-09T17:33:56.285Z,10.53
2019-02-09T17:36:29.483Z,10.27
2019-02-09T17:39:03.503Z,9.90
2019-02-09T17:41:35.858Z,9.23
2019-02-09T17:44:08.629Z,8.57
2019-02-09T17:46:43.344Z,9.10
2019-02-09T17:49:14.896Z,8.57
2019-02-09T17:51:48.290Z,7.90
2019-02-09T17:54:19.911Z,8.20
2019-02-09T17:56:51.224Z,8.73
2019-02-09T17:59:25.907Z,7.97
2019-02-09T18:02:00.625Z,8.13
2019-02-09T18:04:35.370Z,8.80
2019-02-09T18:07:07.134Z,8.57
2019-02-09T18:09:39.643Z,9.63
2019-02-09T18:12:12.281Z,9.83
2019-02-09T18:14:43.970Z,8.77
2019-02-09T18:17:15.831Z,9.77
2019-02-09T18:19:48.917Z,8.00
2019-02-09T18:22:21.416Z,8.47
2019-02-09T18:24:53.141Z,9.30
2019-02-09T18:27:25.629Z,9.23
2019-02-09T18:29:56.981Z,8.23
2019-02-09T18:32:29.067Z,8.20
2019-02-09T18:35:00.483Z,8.93
2019-02-09T18:37:32.231Z,9.50
2019-02-09T18:40:07.048Z,9.73
2019-02-09T18:42:40.224Z,9.10
2019-02-09T18:45:15.339Z,8.70
2019-02-09T18:47:48.544Z,8.20
2019-02-09T18:50:23.986Z,8.03
2019-02-09T18:52:57.169Z,8.27
2019-02-09T18:55:29.103Z,7.87
2019-02-09T18:58:00.683Z,7.17
2019-02-09T19:00:33.742Z,7.63
2019-02-09T19:03:07.662Z,7.47
2019-02-09T19:05:39.614Z,7.60
2019-02-09T19:08:11.523Z,7.67
2019-02-09T19:10:42.889Z,9.40
2019-02-09T19:13:14.776Z,7.47
2019-02-09T19:15:46.396Z,8.33
2019-02-09T19:18:19.501Z,7.13
2019-02-09T19:20:54.116Z,7.17
2019-02-09T19:23:25.669Z,6.33
2019-02-09T19:25:57.636Z,6.97
2019-02-09T19:28:31.861Z,4.90
2019-02-09T19:31:03.396Z,5.07
2019-02-09T19:33:37.609Z,6.17
2019-02-09T19:36:10.602Z,4.90
2019-02-09T19:38:42.047Z,5.93
2019-02-09T19:41:13.597Z,6.03
2019-02-09T19:43:45.373Z,5.30
2019-02-09T19:46:17.181Z,5.67
2019-02-09T19:48:48.874Z,5.97
2019-02-09T19:51:20.234Z,5.50
2019-02-09T19:53:51.780Z,5.20
2019-02-09T19:56:23.565Z,5.67
2019-02-09T19:58:55.269Z,6.00
2019-02-09T20:01:26.968Z,5.60
2019-02-09T20:03:58.683Z,4.90
2019-02-09T20:06:30.121Z,4.87
2019-02-09T20:09:01.571Z,5.00
2019-02-09T20:11:36.116Z,4.53
2019-02-09T20:14:07.447Z,5.00
2019-02-09T20:16:39.184Z,5.50
2019-02-09T20:19:10.977Z,6.30
2019-02-09T20:21:42.697Z,4.30
2019-02-09T20:24:14.564Z,4.97
2019-02-09T20:26:46.155Z,5.57
2019-02-09T20:29:17.908Z,5.27
2019-02-09T20:31:49.366Z,5.87
2019-02-09T20:34:21.053Z,6.20
2019-02-09T20:36:52.783Z,5.90
2019-02-09T20:39:25.763Z,5.90
2019-02-09T20:41:57.838Z,5.80
2019-02-09T20:44:29.390Z,6.10
2019-02-09T20:47:01.065Z,5.90
2019-02-09T20:49:32.899Z,5.70
2019-02-09T20:52:04.591Z,5.30
2019-02-09T20:54:36.298Z,5.40
2019-02-09T20:57:08.647Z,4.80
2019-02-09T20:59:40.017Z,5.97
2019-02-09T21:02:12.315Z,4.73
2019-02-09T21:04:43.777Z,5.63
2019-02-09T21:07:15.166Z,4.80
2019-02-09T21:09:46.948Z,4.30
2019-02-09T21:12:18.494Z,4.70
2019-02-09T21:14:50.200Z,4.13
2019-02-09T21:17:22.082Z,4.60
2019-02-09T21:19:53.433Z,3.90
2019-02-09T21:22:25.313Z,3.80
2019-02-09T21:24:56.911Z,4.00
2019-02-09T21:27:28.518Z,3.93
2019-02-09T21:29:59.882Z,4.30
2019-02-09T21:32:31.948Z,4.07
2019-02-09T21:35:04.849Z,4.00
2019-02-09T21:37:36.272Z,4.20
2019-02-09T21:40:10.684Z,4.90
2019-02-09T21:42:42.397Z,4.23
2019-02-09T21:45:16.107Z,3.90
2019-02-09T21:47:47.843Z,4.63
2019-02-09T21:50:24.863Z,4.03
2019-02-09T21:52:56.645Z,4.00
2019-02-09T21:55:27.986Z,4.57
2019-02-09T21:57:59.364Z,5.00
2019-02-09T22:00:36.202Z,4.43
2019-02-09T22:03:13.759Z,3.67
2019-02-09T22:05:51.680Z,4.33
2019-02-09T22:08:19.946Z,3.63
2019-02-09T22:10:51.959Z,4.73
2019-02-09T22:13:29.191Z,3.80
2019-02-09T22:16:00.864Z,4.50
2019-02-09T22:18:32.392Z,4.43
2019-02-09T22:21:03.904Z,4.53
2019-02-09T22:23:35.615Z,4.33
2019-02-09T22:26:12.955Z,4.23
2019-02-09T22:28:40.000Z,4.00
2019-02-09T22:31:11.800Z,3.70
2019-02-09T22:33:43.398Z,3.73
2019-02-09T22:36:14.864Z,4.23
2019-02-09T22:38:46.976Z,4.37
2019-02-09T22:41:19.971Z,3.93
2019-02-09T22:43:52.258Z,4.30
2019-02-09T22:46:23.835Z,3.83
2019-02-09T22:48:55.162Z,4.17
2019-02-09T22:51:26.695Z,4.87
2019-02-09T22:54:03.251Z,3.90
2019-02-09T22:56:34.527Z,3.70
2019-02-09T22:59:06.170Z,4.10
2019-02-09T23:01:47.883Z,4.00
2019-02-09T23:05:03.661Z,3.40
2019-02-09T23:07:36.649Z,3.70
2019-02-09T23:10:13.966Z,3.67
2019-02-09T23:12:48.688Z,3.47
2019-02-09T23:15:20.907Z,3.50
2019-02-09T23:17:53.804Z,3.33
2019-02-09T23:20:26.843Z,3.40
2019-02-09T23:23:00.248Z,4.00
2019-02-09T23:25:33.442Z,3.80
2019-02-09T23:28:05.372Z,3.70
2019-02-09T23:30:38.537Z,3.63
2019-02-09T23:33:16.668Z,3.87
2019-02-09T23:35:50.002Z,3.27
2019-02-09T23:38:21.752Z,3.23
2019-02-09T23:40:53.201Z,3.03
2019-02-09T23:43:25.897Z,3.20
2019-02-09T23:45:57.336Z,2.93
2019-02-09T23:48:28.993Z,2.90
2019-02-09T23:51:00.770Z,3.33
2019-02-09T23:53:32.835Z,2.70
2019-02-09T23:56:05.065Z,2.80
2019-02-09T23:58:36.975Z,2.80
